createdAt,value
2022-10-01T00:00:22.807Z,47.92
2022-10-01T00:05:25.970Z,23.25
2022-10-01T00:10:30.463Z,19.17
2022-10-01T00:15:33.221Z,17.15
2022-10-01T00:20:36.114Z,61.80
2022-10-01T00:25:39.099Z,188.05
2022-10-01T00:30:48.320Z,195.18
2022-10-01T00:35:53.834Z,24.27
2022-10-01T00:40:56.410Z,20.85
2022-10-01T00:46:01.267Z,20.00
2022-10-01T00:51:05.135Z,15.15
2022-10-01T00:56:07.657Z,14.55
2022-10-01T01:01:10.699Z,13.90
2022-10-01T01:06:13.378Z,13.60
2022-10-01T01:11:16.029Z,13.77
2022-10-01T01:16:24.579Z,13.43
2022-10-01T01:21:29.966Z,14.15
2022-10-01T01:26:44.793Z,14.02
2022-10-01T01:31:47.905Z,13.35
2022-10-01T01:36:56.396Z,13.63
2022-10-01T01:42:01.363Z,13.20
2022-10-01T01:47:05.368Z,13.77
2022-10-01T01:52:08.335Z,12.90
2022-10-01T01:57:11.799Z,12.68
2022-10-01T02:02:20.196Z,12.98
2022-10-01T02:07:39.851Z,12.10
2022-10-01T02:12:55.738Z,12.07
2022-10-01T02:18:13.220Z,12.15
2022-10-01T02:23:18.392Z,13.20
2022-10-01T02:28:23.036Z,12.75
2022-10-01T02:33:29.359Z,13.40
2022-10-01T02:38:33.805Z,13.38
2022-10-01T02:43:42.799Z,12.60
2022-10-01T02:48:45.999Z,13.00
2022-10-01T02:53:52.958Z,13.15
2022-10-01T02:58:55.645Z,12.93
2022-10-01T03:03:58.280Z,13.50
2022-10-01T03:09:01.133Z,12.90
2022-10-01T03:14:04.127Z,13.10
2022-10-01T03:19:06.755Z,13.18
2022-10-01T03:24:09.693Z,13.60
2022-10-01T03:29:13.617Z,16.27
2022-10-01T03:34:16.685Z,17.23
2022-10-01T03:39:19.909Z,15.30
2022-10-01T03:44:22.736Z,13.00
2022-10-01T03:49:25.945Z,12.63
2022-10-01T03:54:30.510Z,12.48
2022-10-01T03:59:33.250Z,11.70
2022-10-01T04:04:36.961Z,11.50
2022-10-01T04:09:39.972Z,12.00
2022-10-01T04:14:44.180Z,11.60
2022-10-01T04:19:46.903Z,12.07
2022-10-01T04:24:49.344Z,14.52
2022-10-01T04:29:52.072Z,11.93
2022-10-01T04:34:54.786Z,14.30
2022-10-01T04:39:57.424Z,14.13
2022-10-01T04:45:00.070Z,11.60
2022-10-01T04:50:02.713Z,11.25
2022-10-01T04:55:05.696Z,12.00
2022-10-01T05:00:09.484Z,11.18
2022-10-01T05:05:12.269Z,11.70
2022-10-01T05:10:16.347Z,12.00
2022-10-01T05:15:21.178Z,16.00
2022-10-01T05:20:26.297Z,11.75
2022-10-01T05:25:28.799Z,11.82
2022-10-01T05:30:31.817Z,15.55
2022-10-01T05:35:36.110Z,14.18
2022-10-01T05:40:38.837Z,14.00
2022-10-01T05:50:50.509Z,13.77
2022-10-01T05:55:56.982Z,10.60
2022-10-01T06:01:00.134Z,13.57
2022-10-01T06:06:05.714Z,16.55
2022-10-01T06:11:09.898Z,11.07
2022-10-01T06:16:14.851Z,11.32
2022-10-01T06:21:17.642Z,10.85
2022-10-01T06:26:20.945Z,9.82
2022-10-01T06:31:23.828Z,10.68
2022-10-01T06:36:26.593Z,9.80
2022-10-01T06:41:29.404Z,10.90
2022-10-01T06:46:32.593Z,7.85
2022-10-01T06:51:53.961Z,8.20
2022-10-01T06:56:56.517Z,7.57
2022-10-01T07:01:59.689Z,7.82
2022-10-01T07:07:02.590Z,7.63
2022-10-01T07:12:05.863Z,8.88
2022-10-01T07:17:08.988Z,9.43
2022-10-01T07:22:13.336Z,8.23
2022-10-01T07:27:16.065Z,7.80
2022-10-01T07:32:19.013Z,8.18
2022-10-01T07:37:21.893Z,9.18
2022-10-01T07:42:24.608Z,7.38
2022-10-01T07:47:27.174Z,8.50
2022-10-01T07:52:31.513Z,43.83
2022-10-01T07:57:35.302Z,12.90
2022-10-01T08:02:38.506Z,9.30
2022-10-01T08:07:45.556Z,6.90
2022-10-01T08:12:48.247Z,7.63
2022-10-01T08:17:51.184Z,12.20
2022-10-01T08:23:01.321Z,6.95
2022-10-01T08:28:04.529Z,7.07
2022-10-01T08:33:07.843Z,7.45
2022-10-01T08:38:11.220Z,6.55
2022-10-01T08:43:20.147Z,6.70
2022-10-01T08:48:41.650Z,6.28
2022-10-01T08:53:50.774Z,7.22
2022-10-01T08:59:00.992Z,6.18
2022-10-01T09:04:05.030Z,5.60
2022-10-01T09:09:20.623Z,6.22
2022-10-01T09:14:32.300Z,5.40
2022-10-01T09:19:55.273Z,5.57
2022-10-01T09:25:10.135Z,5.05
2022-10-01T09:30:18.698Z,5.15
2022-10-01T09:35:21.662Z,4.88
2022-10-01T09:40:46.855Z,4.50
2022-10-01T09:45:53.005Z,4.00
2022-10-01T09:50:59.436Z,4.45
2022-10-01T09:56:24.334Z,3.70
2022-10-01T10:01:40.106Z,3.38
2022-10-01T10:06:42.692Z,2.47
2022-10-01T10:11:45.794Z,4.35
2022-10-01T10:16:49.190Z,2.53
2022-10-01T10:21:57.744Z,2.47
2022-10-01T10:27:02.038Z,2.80
2022-10-01T10:32:07.559Z,2.65
2022-10-01T10:37:28.710Z,3.20
2022-10-01T10:42:31.471Z,3.78
2022-10-01T10:47:44.340Z,4.10
2022-10-01T10:52:48.560Z,4.60
2022-10-01T10:57:55.618Z,4.68
2022-10-01T11:03:05.341Z,4.57
2022-10-01T11:08:09.064Z,5.43
2022-10-01T11:13:11.700Z,5.90
2022-10-01T11:18:19.556Z,5.40
2022-10-01T11:23:34.544Z,5.45
2022-10-01T11:28:52.394Z,5.50
2022-10-01T11:34:13.733Z,5.22
2022-10-01T11:39:18.657Z,5.47
2022-10-01T11:44:34.684Z,5.80
2022-10-01T11:49:43.712Z,4.65
2022-10-01T11:55:28.608Z,4.90
2022-10-01T12:00:31.433Z,4.10
2022-10-01T12:05:34.475Z,4.72
2022-10-01T12:10:43.214Z,4.65
2022-10-01T12:16:02.271Z,4.20
2022-10-01T12:21:08.178Z,4.00
2022-10-01T12:26:10.788Z,4.00
2022-10-01T12:31:17.532Z,3.83
2022-10-01T12:36:23.048Z,4.72
2022-10-01T12:41:44.722Z,4.13
2022-10-01T12:47:08.315Z,4.20
2022-10-01T12:52:34.002Z,4.28
2022-10-01T12:57:55.931Z,4.25
2022-10-01T13:03:18.642Z,4.30
2022-10-01T13:08:42.676Z,4.20
2022-10-01T13:13:45.765Z,4.05
2022-10-01T13:19:13.143Z,4.70
2022-10-01T13:24:32.192Z,5.60
2022-10-01T13:29:37.995Z,5.53
2022-10-01T13:34:41.829Z,5.25
2022-10-01T13:39:45.883Z,5.15
2022-10-01T13:44:54.604Z,5.78
2022-10-01T13:50:05.247Z,7.78
2022-10-01T13:55:24.299Z,5.32
2022-10-01T14:00:27.486Z,5.68
2022-10-01T14:05:33.192Z,5.35
2022-10-01T14:10:58.263Z,5.65
2022-10-01T14:16:03.246Z,4.78
2022-10-01T14:21:26.105Z,4.53
2022-10-01T14:26:28.852Z,4.53
2022-10-01T14:31:51.231Z,4.20
2022-10-01T14:36:54.437Z,4.35
2022-10-01T14:41:58.145Z,4.70
2022-10-01T14:47:01.019Z,4.60
2022-10-01T14:52:08.022Z,3.95
2022-10-01T14:57:13.207Z,4.10
2022-10-01T15:02:20.009Z,4.00
2022-10-01T15:07:23.554Z,3.80
2022-10-01T15:12:26.284Z,5.63
2022-10-01T15:17:29.172Z,4.90
2022-10-01T15:22:33.440Z,4.25
2022-10-01T15:27:36.092Z,3.70
2022-10-01T15:32:38.967Z,4.00
2022-10-01T15:37:44.785Z,3.58
2022-10-01T15:43:17.044Z,4.10
2022-10-01T15:48:28.224Z,3.10
2022-10-01T15:53:32.079Z,3.10
2022-10-01T15:58:37.128Z,3.20
2022-10-01T16:03:57.154Z,2.60
2022-10-01T16:09:19.955Z,2.63
2022-10-01T16:14:24.305Z,3.22
2022-10-01T16:19:30.550Z,3.25
2022-10-01T16:24:41.295Z,2.95
2022-10-01T16:29:49.820Z,4.03
2022-10-01T16:34:52.755Z,3.28
2022-10-01T16:39:56.236Z,2.90
2022-10-01T16:44:59.081Z,2.63
2022-10-01T16:50:01.783Z,2.55
2022-10-01T16:55:05.121Z,2.88
2022-10-01T17:00:16.623Z,5.10
2022-10-01T17:05:23.612Z,3.40
2022-10-01T17:10:26.914Z,3.10
2022-10-01T17:15:30.140Z,3.20
2022-10-01T17:20:35.744Z,3.05
2022-10-01T17:25:38.885Z,4.20
2022-10-01T17:30:46.783Z,3.72
2022-10-01T17:35:55.007Z,5.32
2022-10-01T17:40:59.739Z,3.35
2022-10-01T17:46:02.926Z,3.90
2022-10-01T17:51:07.779Z,4.18
2022-10-01T17:56:12.963Z,4.53
2022-10-01T18:01:17.549Z,5.28
2022-10-01T18:06:20.297Z,4.03
2022-10-01T18:11:23.487Z,4.50
2022-10-01T18:16:26.477Z,4.68
2022-10-01T18:21:29.269Z,4.45
2022-10-01T18:26:32.989Z,4.40
2022-10-01T18:31:37.575Z,4.50
2022-10-01T18:36:40.482Z,4.55
2022-10-01T18:41:43.525Z,4.57
2022-10-01T18:47:00.821Z,4.32
2022-10-01T18:52:12.424Z,4.45
2022-10-01T18:57:15.196Z,4.47
2022-10-01T19:02:36.768Z,4.55
2022-10-01T19:07:48.551Z,5.10
2022-10-01T19:13:12.077Z,5.00
2022-10-01T19:18:20.873Z,4.75
2022-10-01T19:23:41.657Z,4.60
2022-10-01T19:28:44.370Z,4.97
2022-10-01T19:33:49.387Z,5.88
2022-10-01T19:38:52.914Z,5.63
2022-10-01T19:44:03.825Z,5.45
2022-10-01T19:49:09.594Z,6.55
2022-10-01T19:54:17.237Z,6.18
2022-10-01T19:59:20.572Z,5.88
2022-10-01T20:04:31.152Z,6.32
2022-10-01T20:09:33.870Z,6.25
2022-10-01T20:14:55.123Z,5.93
2022-10-01T20:19:57.779Z,5.10
2022-10-01T20:25:24.480Z,6.78
2022-10-01T20:30:27.903Z,4.95
2022-10-01T20:35:30.550Z,4.90
2022-10-01T20:40:54.793Z,5.03
2022-10-01T20:45:58.665Z,4.72
2022-10-01T20:51:15.137Z,5.05
2022-10-01T20:56:21.270Z,4.55
2022-10-01T21:01:25.489Z,4.00
2022-10-01T21:06:37.935Z,3.45
2022-10-01T21:11:47.232Z,3.53
2022-10-01T21:16:50.611Z,3.67
2022-10-01T21:22:01.945Z,3.63
2022-10-01T21:27:13.862Z,3.20
2022-10-01T21:32:22.677Z,3.53
2022-10-01T21:37:30.026Z,3.15
2022-10-01T21:42:35.574Z,5.28
2022-10-01T21:47:47.769Z,3.10
2022-10-01T21:52:50.568Z,3.78
2022-10-01T21:57:56.083Z,3.00
2022-10-01T22:03:07.806Z,3.10
2022-10-01T22:08:19.756Z,3.20
2022-10-01T22:13:24.759Z,3.60
2022-10-01T22:18:27.387Z,3.38
2022-10-01T22:23:31.345Z,3.00
2022-10-01T22:28:39.090Z,3.53
2022-10-01T22:33:48.494Z,3.22
2022-10-01T22:38:55.709Z,3.40
2022-10-01T22:43:58.997Z,3.33
2022-10-01T22:49:14.506Z,3.75
2022-10-01T22:54:30.095Z,3.33
2022-10-01T22:59:41.424Z,3.40
2022-10-01T23:04:50.138Z,4.22
2022-10-01T23:09:52.933Z,3.53
2022-10-01T23:15:02.204Z,2.95
2022-10-01T23:20:16.929Z,3.35
2022-10-01T23:25:28.768Z,3.75
2022-10-01T23:30:38.446Z,3.20
2022-10-01T23:36:06.761Z,3.33
2022-10-01T23:41:14.717Z,3.10
2022-10-01T23:46:34.585Z,2.78
2022-10-01T23:51:46.450Z,2.60
2022-10-01T23:56:55.084Z,3.17
